Time;durP1;ratioP1;P1;durP2;ratioP2;P2;SDS_P1;SDS_P2;PMS_P1;PMS_P2;Temp;Humidity;BMP_temperature;BMP_pressure;BME280_temperature;BME280_humidity;BME280_pressure;Samples;Min_cycle;Max_cycle;Signal;HPM_P1;HPM_P2
2022/02/10 00:15:35;;;;;;;0.60;0.60;;;0.00;1.40;;;0.38;100.00;96119.02;647479;216;31521;-75
2022/02/10 00:17:49;;;;;;;0.40;0.40;;;0.10;1.40;;;0.44;100.00;96118.70;646877;212;42130;-76
2022/02/10 00:20:33;;;;;;;0.60;0.60;;;0.20;1.40;;;0.44;100.00;96119.38;646782;216;42034;-75
2022/02/10 00:23:25;;;;;;;0.70;0.70;;;0.10;1.40;;;0.42;100.00;96123.22;620878;226;31824;-76
2022/02/10 00:35:56;;;;;;;0.60;0.60;;;-0.10;1.40;;;0.28;100.00;96120.47;646937;212;31504;-75
2022/02/10 00:38:39;;;;;;;0.90;0.70;;;-0.10;1.40;;;0.33;100.00;96117.78;619469;222;31935;-77
2022/02/10 00:41:16;;;;;;;1.20;0.90;;;0.00;1.40;;;0.33;100.00;96120.02;647047;216;42141;-76
2022/02/10 00:43:58;;;;;;;0.80;0.60;;;0.00;1.40;;;0.37;100.00;96120.61;649045;216;31474;-76
2022/02/10 00:46:39;;;;;;;0.73;0.73;;;0.00;1.40;;;0.35;100.00;96123.64;647773;216;42678;-76
2022/02/10 00:49:21;;;;;;;0.40;0.40;;;0.00;1.40;;;0.39;100.00;96113.37;647296;216;31520;-76
2022/02/10 00:52:05;;;;;;;0.40;0.30;;;0.00;1.40;;;0.36;100.00;96114.02;622488;226;31847;-76
2022/02/10 00:54:46;;;;;;;0.70;0.50;;;0.00;1.40;;;0.34;100.00;96116.91;647104;212;42283;-76
2022/02/10 00:57:27;;;;;;;0.50;0.50;;;0.00;1.40;;;0.27;100.00;96117.19;647433;212;42173;-76
2022/02/10 01:12:02;;;;;;;0.57;0.52;;;0.00;1.40;;;0.38;100.00;96114.22;646537;212;31506;-76
2022/02/10 01:24:25;;;;;;;0.50;0.50;;;0.20;1.40;;;0.52;100.00;96117.80;646116;216;31463;-76
2022/02/10 01:31:09;;;;;;;0.70;0.60;;;0.10;1.40;;;0.40;100.00;96108.66;647481;216;42134;-76
2022/02/10 01:35:51;;;;;;;0.60;0.60;;;-0.10;1.40;;;0.28;100.00;96115.13;648680;216;32497;-77
2022/02/10 01:38:33;;;;;;;0.60;0.50;;;-0.10;1.40;;;0.29;100.00;96108.97;620362;226;31840;-76
2022/02/10 01:41:48;;;;;;;1.10;1.10;;;-0.10;1.40;;;0.25;100.00;96106.02;647979;216;31506;-76
2022/02/10 01:58:07;;;;;;;0.70;0.70;;;-0.10;1.40;;;0.27;100.00;96105.34;647462;216;31567;-76
2022/02/10 02:03:23;;;;;;;0.50;0.35;;;-0.20;1.40;;;0.11;100.00;96096.55;647453;212;42200;-76
2022/02/10 02:06:12;;;;;;;2.20;0.60;;;-0.30;1.40;;;0.08;100.00;96087.55;646779;212;31621;-76
2022/02/10 02:08:57;;;;;;;1.02;0.80;;;-0.20;1.40;;;0.04;100.00;96087.95;647119;216;32261;-76
2022/02/10 02:11:39;;;;;;;0.50;0.50;;;-0.30;1.40;;;0.05;100.00;96081.48;646635;216;31944;-76
2022/02/10 02:14:20;;;;;;;0.50;0.40;;;-0.30;1.40;;;-0.01;100.00;96078.67;647834;216;32115;-76
2022/02/10 02:17:02;;;;;;;0.40;0.40;;;-0.30;1.40;;;-0.03;100.00;96078.09;620124;222;32155;-76
2022/02/10 02:19:42;;;;;;;0.40;0.32;;;-0.40;1.40;;;-0.04;100.00;96071.55;646409;216;31548;-76
2022/02/10 02:22:23;;;;;;;0.50;0.50;;;-0.40;1.40;;;-0.11;100.00;96060.22;647111;212;32128;-76
2022/02/10 02:25:06;;;;;;;0.90;0.50;;;-0.50;1.40;;;-0.11;100.00;96058.83;647973;216;31510;-76
2022/02/10 02:27:49;;;;;;;0.40;0.40;;;-0.50;1.40;;;-0.06;100.00;96054.82;647353;216;31480;-76
2022/02/10 02:30:44;;;;;;;0.40;0.30;;;-0.40;1.40;;;-0.13;100.00;96048.88;646905;216;31535;-74
2022/02/10 02:36:24;;;;;;;0.50;0.50;;;-0.50;1.40;;;-0.18;100.00;96039.70;646930;212;31498;-76
2022/02/10 02:38:57;;;;;;;1.40;0.60;;;-0.50;1.40;;;-0.25;100.00;96045.13;619896;222;32377;-76
2022/02/10 03:04:22;;;;;;;0.40;0.30;;;-0.60;1.40;;;-0.21;100.00;96025.90;648606;212;31522;-76
2022/02/10 03:06:41;;;;;;;0.90;0.80;;;-0.60;1.40;;;-0.26;100.00;96022.25;646659;216;31505;-77
2022/02/10 03:12:00;;;;;;;0.50;0.30;;;-0.50;1.40;;;-0.22;100.00;96016.51;619959;226;32047;-76
2022/02/10 03:14:47;;;;;;;0.52;0.52;;;-0.50;1.40;;;-0.16;100.00;96019.30;619033;226;32029;-76
2022/02/10 03:17:41;;;;;;;0.40;0.30;;;-0.50;1.40;;;-0.12;100.00;96017.44;647867;212;31475;-76
2022/02/10 04:12:45;;;;;;;0.50;0.40;;;-0.90;1.40;;;-0.57;100.00;96004.98;646218;216;31515;-74
2022/02/10 04:15:16;;;;;;;0.60;0.60;;;-1.00;1.40;;;-0.74;100.00;96006.97;646678;216;31495;-76
2022/02/10 04:18:08;;;;;;;0.40;0.30;;;-1.10;1.40;;;-0.77;100.00;96005.38;619182;226;31964;-76
2022/02/10 04:20:47;;;;;;;0.60;0.50;;;-1.10;1.40;;;-0.65;100.00;96008.20;643607;216;31630;-76
2022/02/10 04:26:11;;;;;;;0.40;0.30;;;-1.00;1.40;;;-0.61;100.00;95998.31;646141;216;31473;-76
2022/02/10 04:29:18;;;;;;;0.40;0.30;;;-1.00;1.40;;;-0.69;100.00;95991.20;647217;216;42115;-76
2022/02/10 04:39:44;;;;;;;0.40;0.30;;;-0.80;1.40;;;-0.58;100.00;95986.73;619162;225;31893;-73
2022/02/10 04:44:45;;;;;;;0.40;0.30;;;-0.90;1.40;;;-0.60;100.00;95991.63;646637;212;31736;-76
2022/02/10 04:55:40;;;;;;;0.95;0.95;;;-1.30;1.40;;;-0.88;100.00;95974.31;647647;216;31537;-76
2022/02/10 04:58:30;;;;;;;0.40;0.40;;;-1.40;1.40;;;-1.03;100.00;95975.27;647542;216;31915;-76
2022/02/10 05:01:08;;;;;;;0.70;0.30;;;-1.60;1.40;;;-1.17;100.00;95968.66;647936;216;31581;-76
2022/02/10 05:04:16;;;;;;;0.70;0.40;;;-1.70;1.40;;;-1.32;100.00;95973.28;646077;216;31528;-76
2022/02/10 05:15:21;;;;;;;0.80;0.52;;;-1.80;1.40;;;-1.36;100.00;95975.59;646587;216;31471;-76
2022/02/10 05:17:49;;;;;;;1.20;0.60;;;-1.80;1.40;;;-1.31;100.00;95977.52;648502;216;31510;-76
2022/02/10 05:20:44;;;;;;;0.40;0.30;;;-1.80;1.40;;;-1.28;100.00;95974.77;632554;222;31642;-76
2022/02/10 05:36:02;;;;;;;1.10;0.30;;;-1.80;1.40;;;-1.46;100.00;95969.30;641583;216;31951;-74
2022/02/10 05:38:52;;;;;;;0.50;0.50;;;-2.00;1.40;;;-1.50;100.00;95968.52;647536;216;31594;-75
2022/02/10 05:44:51;;;;;;;1.08;0.98;;;-2.30;1.40;;;-1.68;100.00;95972.63;632899;217;42667;-76
2022/02/10 05:50:36;;;;;;;0.40;0.40;;;-2.40;1.40;;;-1.85;100.00;95978.16;646666;212;31656;-76
2022/02/10 05:53:15;;;;;;;0.68;0.68;;;-2.40;1.40;;;-1.83;100.00;95979.99;646455;212;31503;-76
2022/02/10 05:55:48;;;;;;;0.40;0.30;;;-2.40;1.40;;;-1.78;100.00;95981.61;651415;216;31516;-75
2022/02/10 05:58:37;;;;;;;0.40;0.35;;;-2.30;1.40;;;-1.81;100.00;95974.48;617972;226;32019;-76
2022/02/10 06:50:55;;;;;;;0.80;0.70;;;-1.50;1.40;;;-1.17;100.00;95999.69;646885;216;31796;-76
2022/02/10 07:04:46;;;;;;;1.40;1.30;;;-0.90;1.40;;;-0.46;100.00;96000.27;648713;216;31936;-78
2022/02/10 07:13:44;;;;;;;1.30;0.80;;;-0.80;1.40;;;0.09;100.00;95996.31;620790;222;32000;-77
2022/02/10 07:53:18;;;;;;;1.40;0.60;;;2.50;1.40;;;3.13;100.00;95996.97;645947;212;31557;-77
2022/02/10 07:56:09;;;;;;;0.57;0.57;;;2.60;1.40;;;3.42;100.00;95989.05;619575;226;32276;-75
2022/02/10 07:59:09;;;;;;;0.60;0.52;;;2.90;1.40;;;3.61;100.00;95990.64;646989;216;31540;-77
2022/02/10 08:49:43;;;;;;;0.60;0.60;;;5.10;1.40;;;5.87;100.00;95968.14;620469;225;31915;-78
2022/02/10 08:58:25;;;;;;;0.75;0.60;;;7.50;1.40;;;8.04;83.42;95962.53;629222;222;31650;-77
2022/02/10 09:00:58;;;;;;;1.10;0.60;;;7.70;1.40;;;8.21;83.42;95962.48;648235;212;31505;-78
2022/02/10 09:03:32;;;;;;;0.50;0.50;;;7.80;1.40;;;8.37;82.88;95965.23;621473;222;31813;-77
2022/02/10 09:06:11;;;;;;;0.60;0.50;;;8.00;1.40;;;8.58;82.11;95968.39;646090;212;32257;-77
2022/02/10 09:18:21;;;;;;;1.87;0.80;;;12.70;1.40;;;12.87;60.32;95958.55;620039;222;43062;-78
2022/02/10 09:47:51;;;;;;;1.75;1.00;;;16.70;1.40;;;16.54;43.93;95953.80;649408;216;42704;-77
2022/02/10 09:54:14;;;;;;;2.00;0.80;;;15.70;1.40;;;16.92;46.42;95952.10;619507;226;31927;-79
2022/02/10 09:55:57;;;;;;;0.90;0.60;;;17.10;1.40;;;18.02;43.81;95953.80;619780;226;31857;-78
2022/02/10 09:58:42;;;;;;;1.90;0.80;;;17.40;1.40;;;17.87;44.12;95951.73;648093;216;31527;-77
2022/02/10 10:01:24;;;;;;;1.40;1.10;;;17.20;1.40;;;17.81;43.75;95951.02;647955;212;32096;-79
2022/02/10 10:04:16;;;;;;;2.72;1.10;;;17.50;1.40;;;16.75;42.96;95952.27;620183;226;31885;-76
2022/02/10 10:07:19;;;;;;;1.30;0.82;;;16.00;1.40;;;16.97;45.29;95949.59;614524;222;32020;-76
2022/02/10 10:10:11;;;;;;;1.40;0.80;;;16.30;1.40;;;17.12;44.78;95949.43;619678;225;34441;-76
2022/02/10 10:13:21;;;;;;;1.12;0.80;;;16.60;1.40;;;17.01;43.39;95944.75;620202;222;32029;-76
2022/02/10 10:21:40;;;;;;;1.73;0.82;;;17.70;1.40;;;17.14;42.90;95936.30;647088;216;31685;-77
2022/02/10 10:24:30;;;;;;;1.83;1.00;;;16.40;1.40;;;17.37;43.02;95926.20;647208;212;31551;-75
2022/02/10 10:27:30;;;;;;;2.53;1.02;;;16.80;1.40;;;17.06;42.84;95939.45;620931;222;32049;-76
2022/02/10 10:47:12;;;;;;;1.23;0.90;;;16.80;1.40;;;17.27;44.41;95921.31;646412;212;42523;-77
2022/02/10 10:49:25;;;;;;;2.70;0.90;;;16.10;1.40;;;16.88;45.74;95913.55;646203;216;31565;-76
2022/02/10 10:51:31;;;;;;;2.70;1.37;;;16.50;1.40;;;16.73;45.23;95904.59;646613;216;31657;-76
2022/02/10 10:54:17;;;;;;;1.55;1.00;;;16.60;1.40;;;18.10;44.40;95897.72;620280;226;32145;-75
2022/02/10 10:56:54;;;;;;;2.08;1.10;;;17.20;1.40;;;17.40;42.75;95896.75;647567;216;31639;-76
2022/02/10 10:59:42;;;;;;;2.37;0.80;;;17.10;1.40;;;17.45;43.29;95874.49;620031;226;43199;-76
2022/02/10 11:39:40;;;;;;;1.75;0.90;;;13.50;1.40;;;14.54;46.62;95867.34;646289;212;31489;-78
2022/02/10 11:42:32;;;;;;;1.40;1.10;;;13.80;1.40;;;14.45;48.13;95868.06;648221;216;31598;-76
2022/02/10 11:45:45;;;;;;;1.60;1.00;;;13.70;1.40;;;14.78;46.98;95863.73;619632;222;31885;-77
2022/02/10 12:36:28;;;;;;;1.23;0.90;;;13.60;1.40;;;14.35;52.51;95808.13;619434;226;31816;-78
2022/02/10 13:23:26;;;;;;;2.80;1.27;;;13.00;1.40;;;13.61;58.57;95782.53;648244;212;42146;-77
2022/02/10 13:27:00;;;;;;;1.15;1.05;;;12.70;1.40;;;13.43;63.79;95786.56;646975;213;31487;-78
2022/02/10 13:32:23;;;;;;;1.13;0.90;;;12.40;1.40;;;12.98;62.79;95774.91;647100;216;31536;-78
2022/02/10 14:10:35;;;;;;;2.65;1.12;;;11.50;1.40;;;12.05;76.25;95791.47;647535;212;31538;-77
2022/02/10 14:12:55;;;;;;;1.80;0.90;;;11.40;1.40;;;12.04;75.67;95790.77;647052;212;31534;-78
2022/02/10 14:15:53;;;;;;;1.37;0.90;;;11.40;1.40;;;11.99;74.98;95788.66;647750;216;31537;-77
2022/02/10 14:18:30;;;;;;;1.73;1.50;;;11.40;1.40;;;11.89;74.80;95790.59;647733;216;31519;-76
2022/02/10 14:21:16;;;;;;;1.50;1.03;;;11.30;1.40;;;11.89;73.48;95796.50;648731;212;31525;-78
2022/02/10 14:26:44;;;;;;;4.82;1.40;;;11.30;1.40;;;11.79;75.54;95793.89;620267;222;46190;-78
2022/02/10 14:29:19;;;;;;;1.80;1.10;;;11.20;1.40;;;11.87;74.91;95791.71;647025;216;31470;-78
2022/02/10 14:32:03;;;;;;;1.50;1.40;;;11.20;1.40;;;11.84;75.57;95790.75;647933;216;32029;-77
2022/02/10 14:36:04;;;;;;;2.00;1.20;;;11.30;1.40;;;11.92;76.75;95792.06;647332;212;31672;-78
2022/02/10 14:38:58;;;;;;;1.17;0.80;;;11.30;1.40;;;12.06;73.23;95797.09;648760;212;31574;-76
2022/02/10 15:18:30;;;;;;;1.60;0.90;;;11.70;1.40;;;12.56;67.70;95775.69;619451;226;31825;-78
2022/02/10 15:36:19;;;;;;;1.73;1.40;;;11.80;1.40;;;11.91;70.75;95769.86;642930;219;31554;-78
2022/02/10 15:53:38;;;;;;;1.70;1.30;;;11.40;1.40;;;11.58;75.20;95767.99;645745;216;32280;-76
2022/02/10 16:18:22;;;;;;;2.50;1.50;;;9.50;1.40;;;10.13;83.42;95762.77;632048;222;32552;-76
2022/02/10 16:21:04;;;;;;;3.90;1.58;;;9.30;1.40;;;9.89;85.01;95762.93;647772;216;42214;-78
2022/02/10 16:23:47;;;;;;;2.50;1.30;;;9.20;1.40;;;9.84;85.49;95761.02;647586;216;31521;-77
2022/02/10 16:26:42;;;;;;;2.10;0.90;;;9.10;1.40;;;9.82;85.65;95759.05;646689;216;31603;-79
2022/02/10 16:29:22;;;;;;;2.80;1.23;;;9.20;1.40;;;9.46;88.71;95766.39;647181;212;31561;-77
2022/02/10 16:32:04;;;;;;;2.80;1.60;;;8.90;1.40;;;9.41;89.45;95764.99;647177;212;31807;-78
2022/02/10 16:35:51;;;;;;;2.20;1.10;;;8.70;1.40;;;9.21;91.03;95767.05;620137;225;32084;-78
2022/02/10 16:38:37;;;;;;;2.17;1.20;;;8.60;1.40;;;9.18;91.68;95763.77;648026;216;31537;-77
2022/02/10 16:41:19;;;;;;;2.23;1.40;;;8.60;1.40;;;9.01;92.70;95765.02;647377;216;31501;-77
2022/02/10 16:44:01;;;;;;;2.70;1.50;;;8.30;1.40;;;8.86;93.38;95764.88;647197;216;32600;-77
2022/02/10 16:46:42;;;;;;;2.33;1.33;;;8.20;1.40;;;9.11;91.55;95763.39;647412;212;31548;-78
2022/02/10 16:49:24;;;;;;;1.25;1.00;;;8.50;1.40;;;8.82;93.37;95763.77;617033;224;32407;-77
2022/02/10 16:52:07;;;;;;;3.10;1.50;;;8.10;1.40;;;8.67;95.58;95764.70;646988;212;31719;-77
2022/02/10 16:54:50;;;;;;;1.70;1.30;;;7.90;1.40;;;8.56;96.64;95772.64;620292;226;31985;-77
2022/02/10 16:57:43;;;;;;;1.80;1.40;;;7.90;1.40;;;8.74;95.45;95776.39;647998;212;31526;-77
2022/02/10 17:03:32;;;;;;;1.42;1.08;;;8.10;1.40;;;8.47;97.54;95775.60;647309;212;42669;-77
2022/02/10 17:14:06;;;;;;;2.20;1.30;;;7.80;1.40;;;8.24;100.00;95777.08;643507;212;31678;-77
2022/02/10 17:17:31;;;;;;;4.97;2.40;;;7.50;1.40;;;8.30;100.00;95775.31;619210;222;32486;-76
2022/02/10 17:20:24;;;;;;;4.87;2.30;;;7.80;1.40;;;8.35;100.00;95779.30;645965;216;31571;-76
2022/02/10 17:25:34;;;;;;;6.10;4.85;;;7.80;1.40;;;8.34;100.00;95778.77;641849;215;31620;-75
2022/02/10 17:28:15;;;;;;;2.07;1.90;;;7.70;1.40;;;8.39;100.00;95783.99;617981;222;32036;-74
2022/02/10 17:36:05;;;;;;;2.30;2.10;;;7.70;1.40;;;8.44;100.00;95797.19;647323;212;31579;-74
2022/02/10 17:41:52;;;;;;;1.90;1.70;;;7.50;1.40;;;8.48;100.00;95799.97;646789;216;31506;-75
2022/02/10 17:44:36;;;;;;;1.73;1.20;;;7.80;1.40;;;8.52;100.00;95802.69;647876;216;31590;-76
2022/02/10 17:51:27;;;;;;;1.48;1.12;;;7.80;1.40;;;8.55;100.00;95806.73;645745;216;31658;-75
2022/02/10 17:52:56;;;;;;;2.10;1.53;;;7.80;1.40;;;8.47;100.00;95812.57;646351;212;31539;-76
2022/02/10 17:55:23;;;;;;;1.70;1.60;;;7.70;1.40;;;8.25;100.00;95817.48;647891;212;31525;-75
2022/02/10 17:58:05;;;;;;;1.70;1.50;;;7.30;1.40;;;7.92;100.00;95811.86;646944;216;31561;-77
2022/02/10 18:00:48;;;;;;;2.67;2.27;;;6.90;1.40;;;7.53;100.00;95821.59;621608;222;32084;-76
2022/02/10 18:03:29;;;;;;;1.90;1.80;;;6.50;1.40;;;7.15;100.00;95822.15;647724;216;31589;-74
2022/02/10 18:06:29;;;;;;;2.00;1.80;;;6.20;1.40;;;6.77;100.00;95821.14;646646;212;31618;-76
2022/02/10 18:14:48;;;;;;;1.40;1.30;;;5.30;1.40;;;6.07;100.00;95840.88;648251;216;31502;-76
2022/02/10 18:17:37;;;;;;;2.40;2.20;;;5.10;1.40;;;5.95;100.00;95837.70;647118;216;31626;-76
2022/02/10 18:20:22;;;;;;;1.80;1.70;;;5.10;1.40;;;5.96;100.00;95839.72;646166;212;31636;-75
2022/02/10 18:25:53;;;;;;;4.37;2.03;;;5.00;1.40;;;5.77;100.00;95855.86;646338;216;31532;-76
2022/02/10 18:28:35;;;;;;;1.65;1.42;;;4.90;1.40;;;5.76;100.00;95850.28;618333;222;32016;-77
2022/02/10 19:05:35;;;;;;;5.32;3.70;;;4.20;1.40;;;5.33;100.00;95884.56;646882;216;31544;-76
2022/02/10 19:07:04;;;;;;;2.00;1.33;;;4.30;1.40;;;5.42;100.00;95873.78;646433;212;31611;-76
2022/02/10 19:09:42;;;;;;;2.13;1.57;;;4.60;1.40;;;5.48;100.00;95885.05;619071;222;42564;-77
2022/02/10 19:12:28;;;;;;;1.20;1.00;;;4.60;1.40;;;5.45;100.00;95895.20;619506;226;43136;-77
2022/02/10 19:15:15;;;;;;;1.73;1.62;;;4.60;1.40;;;5.44;100.00;95891.38;646909;216;31594;-77
2022/02/10 19:17:50;;;;;;;0.90;0.90;;;4.50;1.40;;;5.51;100.00;95888.67;647003;212;42890;-74
2022/02/10 19:20:34;;;;;;;1.70;1.60;;;4.60;1.40;;;5.52;100.00;95886.73;647706;216;32260;-76
2022/02/10 19:23:16;;;;;;;3.42;2.15;;;4.50;1.40;;;5.41;100.00;95882.12;647529;216;31644;-75
2022/02/10 19:25:58;;;;;;;4.43;3.73;;;4.50;1.40;;;5.47;100.00;95889.78;647150;216;31807;-78
2022/02/10 19:28:39;;;;;;;2.70;2.25;;;4.50;1.40;;;5.56;100.00;95890.09;646685;216;42187;-76
2022/02/10 19:31:22;;;;;;;2.00;1.50;;;4.70;1.40;;;5.66;100.00;95895.22;647375;212;42166;-75
2022/02/10 19:35:53;;;;;;;2.30;1.85;;;4.70;1.40;;;5.84;100.00;95891.45;647860;212;31854;-77
2022/02/10 19:38:37;;;;;;;2.00;1.67;;;4.70;1.40;;;5.90;100.00;95898.33;646863;215;42323;-75
2022/02/10 19:41:19;;;;;;;2.45;2.25;;;4.90;1.40;;;5.94;100.00;95901.47;646765;212;42728;-76
2022/02/10 19:44:01;;;;;;;2.00;1.60;;;4.90;1.40;;;6.02;100.00;95903.73;647297;212;31588;-76
2022/02/10 19:46:46;;;;;;;1.77;1.67;;;5.00;1.40;;;6.11;100.00;95897.72;646848;212;31555;-76
2022/02/10 19:49:27;;;;;;;1.45;1.35;;;5.00;1.40;;;6.10;100.00;95901.92;647005;216;31573;-76
2022/02/10 19:52:10;;;;;;;1.73;1.62;;;4.90;1.40;;;6.07;100.00;95906.05;648318;212;32160;-76
2022/02/10 19:54:54;;;;;;;2.30;1.70;;;4.90;1.40;;;6.11;100.00;95914.47;647465;216;31530;-76
2022/02/10 19:57:36;;;;;;;2.65;1.58;;;4.90;1.40;;;6.09;100.00;95916.88;646955;212;31642;-75
2022/02/10 20:00:18;;;;;;;1.27;1.12;;;4.90;1.40;;;5.98;100.00;95917.11;619931;222;42542;-76
2022/02/10 20:02:57;;;;;;;1.37;1.27;;;4.80;1.40;;;5.96;100.00;95916.95;647598;212;32067;-77
2022/02/10 20:05:45;;;;;;;2.42;2.22;;;4.70;1.40;;;5.96;100.00;95919.58;614442;229;32063;-76
2022/02/10 20:08:24;;;;;;;2.05;1.40;;;4.80;1.40;;;6.13;100.00;95919.16;619590;222;31933;-76
2022/02/10 20:11:08;;;;;;;2.47;2.28;;;4.90;1.40;;;6.14;100.00;95913.86;646970;216;42138;-76
2022/02/10 20:13:49;;;;;;;2.35;2.22;;;4.90;1.40;;;6.03;100.00;95916.11;646040;212;32091;-76
2022/02/10 20:16:31;;;;;;;2.65;1.67;;;4.80;1.40;;;5.97;100.00;95904.62;648103;212;31563;-76
2022/02/10 20:21:48;;;;;;;1.90;1.80;;;4.70;1.40;;;5.82;100.00;95904.14;631916;222;31817;-76
2022/02/10 20:24:30;;;;;;;4.17;2.23;;;4.60;1.40;;;5.75;100.00;95909.52;619377;226;31899;-76
2022/02/10 20:27:11;;;;;;;1.90;1.80;;;4.60;1.40;;;5.74;100.00;95907.79;647678;212;32237;-75
2022/02/10 20:29:55;;;;;;;1.75;1.65;;;4.60;1.40;;;5.76;100.00;95908.31;646534;216;42294;-76
2022/02/10 20:32:38;;;;;;;1.50;1.40;;;4.60;1.40;;;5.82;100.00;95912.96;619505;222;31975;-76
2022/02/10 20:35:56;;;;;;;1.70;1.60;;;4.80;1.40;;;5.91;100.00;95916.80;648073;216;31596;-76
2022/02/10 20:38:37;;;;;;;3.40;2.50;;;4.90;1.40;;;5.95;100.00;95914.69;646776;212;31570;-75
2022/02/10 20:41:19;;;;;;;3.07;2.10;;;4.80;1.40;;;5.98;100.00;95917.92;646943;212;31704;-76
2022/02/10 20:44:01;;;;;;;3.40;1.80;;;4.80;1.40;;;5.95;100.00;95916.16;620485;226;31923;-76
2022/02/10 20:46:44;;;;;;;1.53;1.40;;;4.80;1.40;;;5.86;100.00;95909.64;646312;212;32632;-76
2022/02/10 20:49:27;;;;;;;3.08;2.12;;;4.70;1.40;;;5.91;100.00;95913.89;647147;212;31521;-77
2022/02/10 20:52:06;;;;;;;4.70;3.40;;;4.80;1.40;;;5.93;100.00;95909.91;619284;222;32148;-76
2022/02/10 20:54:52;;;;;;;4.40;3.15;;;4.80;1.40;;;5.96;100.00;95913.23;647216;216;42387;-76
2022/02/10 20:57:34;;;;;;;3.10;2.80;;;4.80;1.40;;;6.00;100.00;95910.34;647230;216;31562;-76
2022/02/10 21:00:18;;;;;;;3.40;3.10;;;4.90;1.40;;;6.01;100.00;95899.41;647616;212;33306;-76
2022/02/10 21:02:57;;;;;;;3.55;2.72;;;4.80;1.40;;;5.95;100.00;95889.82;648108;212;31660;-76
2022/02/10 21:05:42;;;;;;;4.30;3.90;;;4.90;1.40;;;5.78;100.00;95887.13;645543;212;31580;-76
2022/02/10 21:08:34;;;;;;;5.10;2.80;;;4.80;1.40;;;5.96;100.00;95892.03;647240;216;31594;-76
2022/02/10 21:11:06;;;;;;;3.53;2.70;;;4.90;1.40;;;6.02;100.00;95894.09;619199;226;31915;-76
2022/02/10 21:13:50;;;;;;;2.00;1.80;;;5.10;1.40;;;5.93;100.00;95893.34;646823;216;32096;-76
2022/02/10 21:16:36;;;;;;;1.65;1.55;;;4.80;1.40;;;5.85;100.00;95886.50;645580;216;31583;-76
2022/02/10 21:19:17;;;;;;;4.70;2.70;;;4.60;1.40;;;5.69;100.00;95888.52;647916;212;31682;-76
2022/02/10 21:21:57;;;;;;;1.90;1.80;;;4.30;1.40;;;5.44;100.00;95887.72;647693;216;31556;-74
2022/02/10 21:24:44;;;;;;;1.73;1.50;;;4.20;1.40;;;5.54;100.00;95885.88;646513;212;31533;-76
2022/02/10 21:30:19;;;;;;;1.80;1.70;;;4.40;1.40;;;5.53;100.00;95876.15;647074;216;32062;-76
2022/02/10 21:33:03;;;;;;;1.77;1.67;;;4.40;1.40;;;5.48;100.00;95879.63;646919;212;42431;-76
2022/02/10 21:38:58;;;;;;;3.17;2.70;;;4.50;1.40;;;5.45;100.00;95874.50;618884;225;31922;-76
2022/02/10 21:45:25;;;;;;;3.07;2.80;;;4.60;1.40;;;5.71;100.00;95883.95;646880;212;31572;-76
2022/02/10 21:47:46;;;;;;;1.90;1.65;;;4.60;1.40;;;5.62;100.00;95875.03;647354;212;31552;-76
2022/02/10 21:59:15;;;;;;;1.50;1.40;;;4.40;1.40;;;5.54;100.00;95866.84;619019;226;31921;-76
2022/02/10 22:05:28;;;;;;;2.20;1.50;;;4.40;1.40;;;5.52;100.00;95857.38;648637;216;42253;-76
2022/02/10 22:10:29;;;;;;;1.90;1.20;;;4.40;1.40;;;5.42;100.00;95864.11;619268;222;31891;-76
2022/02/10 22:18:34;;;;;;;1.90;1.47;;;4.60;1.40;;;5.61;100.00;95847.33;648123;212;31554;-77
2022/02/10 22:21:33;;;;;;;1.90;1.80;;;4.60;1.40;;;5.56;100.00;95839.05;615933;226;31881;-75
2022/02/10 22:24:14;;;;;;;7.47;2.10;;;4.70;1.40;;;5.64;100.00;95834.38;646606;212;31581;-76
2022/02/10 22:26:54;;;;;;;1.43;1.33;;;4.80;1.40;;;5.79;100.00;95828.16;646196;212;31626;-76
2022/02/10 22:29:46;;;;;;;1.40;1.30;;;4.90;1.40;;;5.84;100.00;95828.12;647824;216;31595;-75
2022/02/10 22:35:54;;;;;;;1.50;1.40;;;5.30;1.40;;;5.97;100.00;95827.13;619733;226;31975;-76
2022/02/10 22:38:36;;;;;;;1.73;1.62;;;5.30;1.40;;;6.08;100.00;95826.39;646032;216;32059;-76
2022/02/10 22:41:17;;;;;;;1.33;1.20;;;5.30;1.40;;;6.01;100.00;95824.77;617984;226;31867;-76
2022/02/10 22:44:00;;;;;;;1.42;1.33;;;5.30;1.40;;;6.11;100.00;95819.08;646875;212;31542;-76
2022/02/10 22:46:43;;;;;;;2.08;1.52;;;5.30;1.40;;;6.15;100.00;95816.63;619484;222;31949;-75
2022/02/10 22:49:25;;;;;;;2.40;1.70;;;5.30;1.40;;;6.21;100.00;95812.28;646895;216;31561;-75
2022/02/10 22:52:08;;;;;;;1.60;1.30;;;5.50;1.40;;;6.28;100.00;95814.92;619608;226;32498;-75
2022/02/10 22:54:49;;;;;;;1.42;1.33;;;5.30;1.40;;;6.27;100.00;95810.77;645914;216;42339;-76
2022/02/10 22:57:33;;;;;;;1.73;1.60;;;5.30;1.40;;;6.31;100.00;95808.57;647607;216;31670;-76
2022/02/10 23:00:16;;;;;;;1.23;1.12;;;5.30;1.40;;;6.36;100.00;95808.11;620056;225;31932;-76
2022/02/10 23:02:58;;;;;;;1.90;1.60;;;5.50;1.40;;;6.45;100.00;95797.83;619353;226;32066;-76
2022/02/10 23:05:39;;;;;;;1.80;1.70;;;5.60;1.40;;;6.43;100.00;95794.66;645219;212;31498;-76
2022/02/10 23:08:21;;;;;;;2.00;1.80;;;5.60;1.40;;;6.44;100.00;95785.98;645813;216;31563;-76
2022/02/10 23:11:03;;;;;;;2.10;1.40;;;5.60;1.40;;;6.48;100.00;95781.13;646442;216;33125;-76
2022/02/10 23:13:46;;;;;;;1.90;1.48;;;5.70;1.40;;;6.33;100.00;95777.05;647544;216;31521;-76
2022/02/10 23:16:26;;;;;;;2.17;1.73;;;5.50;1.40;;;6.21;100.00;95776.74;647584;216;31525;-76
2022/02/10 23:19:08;;;;;;;1.40;1.20;;;5.40;1.40;;;6.23;100.00;95779.28;646880;216;31536;-76
2022/02/10 23:21:50;;;;;;;2.50;1.90;;;5.30;1.40;;;6.20;100.00;95779.00;647088;216;31563;-76
2022/02/10 23:27:06;;;;;;;2.50;2.00;;;5.40;1.40;;;6.26;100.00;95773.89;619171;222;32233;-76
2022/02/10 23:29:48;;;;;;;5.50;2.30;;;5.40;1.40;;;6.31;100.00;95767.70;647808;216;32143;-76
2022/02/10 23:32:30;;;;;;;2.62;2.20;;;5.40;1.40;;;6.23;100.00;95771.90;648258;216;31590;-75
2022/02/10 23:36:32;;;;;;;1.10;1.00;;;5.40;1.40;;;6.25;100.00;95765.60;647631;215;31553;-76
2022/02/10 23:38:43;;;;;;;1.45;1.35;;;5.40;1.40;;;6.28;100.00;95769.16;647360;216;31787;-75
2022/02/10 23:44:14;;;;;;;1.60;1.50;;;5.40;1.40;;;6.29;100.00;95768.30;648515;216;31767;-76
2022/02/10 23:46:53;;;;;;;2.22;1.15;;;5.40;1.40;;;6.28;100.00;95764.09;619962;226;31962;-76
2022/02/10 23:51:07;;;;;;;2.03;1.80;;;5.20;1.40;;;5.99;100.00;95769.44;647766;216;31565;-77
2022/02/10 23:53:49;;;;;;;0.70;0.70;;;5.20;1.40;;;5.91;100.00;95763.31;646338;216;31621;-76
2022/02/10 23:56:37;;;;;;;3.08;1.50;;;5.10;1.40;;;5.80;100.00;95765.58;647577;216;31854;-76
2022/02/10 23:59:37;;;;;;;1.37;1.27;;;5.10;1.40;;;5.70;100.00;95757.20;645858;216;42447;-76
